createdAt,value
2018-03-26T00:01:50.604Z,20.97
2018-03-26T00:04:25.142Z,22.67
2018-03-26T00:07:00.315Z,21.80
2018-03-26T00:09:34.565Z,22.37
2018-03-26T00:12:09.385Z,20.17
2018-03-26T00:14:43.936Z,21.27
2018-03-26T00:17:19.054Z,20.20
2018-03-26T00:19:53.405Z,23.37
2018-03-26T00:22:27.965Z,20.80
2018-03-26T00:25:02.653Z,20.57
2018-03-26T00:27:37.648Z,20.73
2018-03-26T00:30:12.761Z,21.77
2018-03-26T00:32:47.298Z,19.90
2018-03-26T00:35:22.476Z,20.30
2018-03-26T00:37:57.795Z,20.30
2018-03-26T00:40:32.147Z,20.47
2018-03-26T00:43:07.654Z,19.77
2018-03-26T00:45:43.028Z,20.07
2018-03-26T00:48:18.322Z,20.23
2018-03-26T00:50:52.590Z,20.57
2018-03-26T00:53:47.570Z,19.97
2018-03-26T00:56:22.145Z,20.07
2018-03-26T00:58:55.766Z,19.77
2018-03-26T01:01:29.829Z,19.90
2018-03-26T01:04:04.345Z,20.73
2018-03-26T01:06:39.390Z,19.23
2018-03-26T01:09:13.814Z,21.07
2018-03-26T01:11:47.730Z,19.17
2018-03-26T01:14:21.617Z,20.37
2018-03-26T01:16:56.781Z,19.53
2018-03-26T01:19:31.334Z,19.67
2018-03-26T01:22:05.494Z,20.73
2018-03-26T01:24:40.217Z,19.50
2018-03-26T01:27:15.166Z,20.37
2018-03-26T01:29:50.494Z,18.30
2018-03-26T01:32:24.818Z,18.77
2018-03-26T01:35:00.141Z,20.83
2018-03-26T01:37:35.193Z,19.90
2018-03-26T01:40:08.983Z,19.40
2018-03-26T01:42:42.945Z,19.23
2018-03-26T01:45:16.774Z,19.50
2018-03-26T01:47:51.020Z,19.83
2018-03-26T01:50:26.110Z,20.60
2018-03-26T01:53:00.182Z,21.47
2018-03-26T01:55:34.649Z,20.40
2018-03-26T01:58:09.999Z,22.70
2018-03-26T02:00:43.850Z,21.00
2018-03-26T02:03:18.841Z,21.33
2018-03-26T02:05:53.466Z,22.17
2018-03-26T02:08:28.393Z,20.40
2018-03-26T02:11:03.335Z,19.90
2018-03-26T02:13:37.416Z,21.47
2018-03-26T02:16:12.168Z,21.37
2018-03-26T02:18:46.217Z,21.30
2018-03-26T02:21:20.904Z,23.17
2018-03-26T02:23:55.059Z,22.27
2018-03-26T02:26:29.707Z,21.33
2018-03-26T02:29:03.468Z,22.27
2018-03-26T02:31:37.973Z,22.13
2018-03-26T02:34:12.006Z,23.03
2018-03-26T02:36:46.028Z,23.73
2018-03-26T02:39:21.258Z,23.83
2018-03-26T02:41:55.792Z,23.67
2018-03-26T02:44:30.254Z,23.70
2018-03-26T02:47:04.210Z,24.00
2018-03-26T02:49:38.435Z,23.33
2018-03-26T02:52:13.764Z,24.90
2018-03-26T02:54:48.286Z,24.70
2018-03-26T02:57:22.457Z,24.47
2018-03-26T02:59:57.744Z,24.80
2018-03-26T03:02:31.895Z,23.93
2018-03-26T03:05:05.918Z,23.47
2018-03-26T03:07:40.306Z,23.77
2018-03-26T03:10:15.538Z,24.57
2018-03-26T03:12:50.100Z,25.60
2018-03-26T03:15:24.050Z,27.00
2018-03-26T03:17:58.551Z,24.20
2018-03-26T03:20:32.977Z,25.60
2018-03-26T03:23:07.526Z,26.87
2018-03-26T03:25:41.544Z,25.27
2018-03-26T03:28:15.369Z,25.27
2018-03-26T03:30:50.342Z,25.60
2018-03-26T03:33:24.109Z,26.87
2018-03-26T03:35:57.930Z,26.20
2018-03-26T03:38:32.798Z,26.17
2018-03-26T03:41:07.265Z,27.00
2018-03-26T03:43:42.749Z,27.10
2018-03-26T03:46:16.733Z,26.13
2018-03-26T03:48:51.407Z,26.43
2018-03-26T03:51:25.481Z,28.30
2018-03-26T03:54:00.064Z,25.87
2018-03-26T03:56:34.275Z,27.30
2018-03-26T03:59:08.686Z,25.93
2018-03-26T04:01:42.570Z,25.67
2018-03-26T04:04:16.206Z,25.77
2018-03-26T04:06:50.067Z,25.37
2018-03-26T04:09:24.600Z,26.63
2018-03-26T04:11:58.946Z,26.00
2018-03-26T04:14:32.895Z,26.77
2018-03-26T04:17:06.804Z,25.50
2018-03-26T04:19:42.288Z,26.47
2018-03-26T04:22:17.561Z,25.63
2018-03-26T04:24:52.869Z,26.90
2018-03-26T04:27:27.284Z,26.80
2018-03-26T04:30:01.047Z,27.77
2018-03-26T04:32:34.971Z,27.00
2018-03-26T04:35:09.631Z,28.20
2018-03-26T04:37:44.589Z,28.30
2018-03-26T04:40:18.293Z,27.93
2018-03-26T04:42:53.695Z,26.77
2018-03-26T04:45:29.252Z,28.27
2018-03-26T04:48:03.907Z,27.80
2018-03-26T04:50:38.437Z,26.60
2018-03-26T04:53:12.640Z,27.20
2018-03-26T04:55:47.853Z,27.93
2018-03-26T04:58:22.166Z,27.93
2018-03-26T05:00:56.687Z,27.77
2018-03-26T05:03:38.230Z,28.27
2018-03-26T05:06:13.595Z,27.77
2018-03-26T05:08:47.763Z,26.33
2018-03-26T05:11:22.965Z,27.60
2018-03-26T05:13:57.422Z,27.90
2018-03-26T05:16:32.531Z,26.23
2018-03-26T05:19:06.969Z,27.60
2018-03-26T05:21:42.384Z,27.40
2018-03-26T05:24:16.733Z,27.53
2018-03-26T05:26:51.417Z,27.83
2018-03-26T05:29:26.108Z,28.60
2018-03-26T05:32:00.101Z,28.07
2018-03-26T05:34:34.747Z,29.43
2018-03-26T05:37:09.315Z,28.97
2018-03-26T05:39:44.078Z,28.27
2018-03-26T05:42:19.000Z,26.77
2018-03-26T05:44:53.642Z,28.40
2018-03-26T05:47:28.089Z,28.63
2018-03-26T05:50:02.271Z,28.03
2018-03-26T05:52:36.905Z,28.13
2018-03-26T05:55:13.170Z,28.00
2018-03-26T05:57:47.786Z,27.47
2018-03-26T06:00:21.765Z,29.50
2018-03-26T06:02:56.549Z,27.97
2018-03-26T06:05:30.978Z,30.17
2018-03-26T06:08:05.414Z,29.50
2018-03-26T06:10:39.370Z,28.90
2018-03-26T06:13:14.906Z,29.57
2018-03-26T06:15:48.712Z,28.93
2018-03-26T06:18:22.493Z,28.43
2018-03-26T06:20:56.808Z,27.93
2018-03-26T06:23:32.060Z,28.93
2018-03-26T06:26:07.104Z,28.77
2018-03-26T06:28:40.942Z,27.97
2018-03-26T06:31:15.568Z,29.50
2018-03-26T06:33:50.549Z,27.20
2018-03-26T06:36:27.170Z,30.07
2018-03-26T06:39:03.586Z,27.67
2018-03-26T06:41:38.862Z,29.13
2018-03-26T06:44:12.740Z,27.77
2018-03-26T06:46:46.819Z,30.07
2018-03-26T06:49:20.766Z,29.03
2018-03-26T06:51:55.622Z,30.97
2018-03-26T06:54:30.316Z,31.93
2018-03-26T06:57:04.505Z,29.10
2018-03-26T06:59:39.979Z,28.90
2018-03-26T07:02:14.742Z,30.40
2018-03-26T07:04:49.529Z,29.27
2018-03-26T07:07:23.880Z,28.60
2018-03-26T07:09:59.286Z,29.03
2018-03-26T07:12:33.405Z,29.83
2018-03-26T07:15:07.443Z,30.33
2018-03-26T07:17:42.298Z,29.13
2018-03-26T07:20:16.170Z,28.73
2018-03-26T07:22:51.093Z,28.67
2018-03-26T07:25:24.934Z,28.87
2018-03-26T07:27:59.564Z,28.40
2018-03-26T07:30:33.526Z,28.23
2018-03-26T07:33:08.183Z,29.10
2018-03-26T07:35:44.017Z,29.83
2018-03-26T07:38:18.561Z,30.00
2018-03-26T07:40:52.645Z,29.43
2018-03-26T07:43:27.409Z,28.77
2018-03-26T07:46:02.207Z,29.30
2018-03-26T07:48:44.229Z,29.97
2018-03-26T07:51:18.445Z,28.50
2018-03-26T07:53:52.545Z,29.03
2018-03-26T07:56:26.400Z,28.57
2018-03-26T07:59:00.890Z,29.33
2018-03-26T08:01:35.289Z,29.07
2018-03-26T08:04:10.378Z,30.20
2018-03-26T08:06:44.025Z,29.00
2018-03-26T08:09:18.812Z,30.00
2018-03-26T08:11:53.258Z,30.53
2018-03-26T08:14:28.852Z,29.27
2018-03-26T08:17:03.883Z,28.67
2018-03-26T08:19:38.086Z,32.10
2018-03-26T08:22:13.294Z,29.40
2018-03-26T08:24:47.388Z,30.13
2018-03-26T08:27:21.939Z,30.40
2018-03-26T08:29:56.822Z,30.20
2018-03-26T08:32:31.613Z,29.30
2018-03-26T08:35:06.170Z,29.77
2018-03-26T08:37:40.071Z,30.17
2018-03-26T08:40:14.703Z,29.73
2018-03-26T08:42:49.251Z,34.17
2018-03-26T08:45:23.245Z,30.50
2018-03-26T08:47:56.971Z,31.17
2018-03-26T08:50:30.799Z,30.73
2018-03-26T08:53:05.309Z,30.37
2018-03-26T08:55:39.366Z,29.73
2018-03-26T08:58:13.945Z,29.70
2018-03-26T09:00:48.285Z,30.17
2018-03-26T09:03:22.957Z,30.47
2018-03-26T09:05:56.866Z,31.37
2018-03-26T09:08:30.503Z,29.90
2018-03-26T09:11:04.180Z,31.37
2018-03-26T09:13:38.072Z,31.30
2018-03-26T09:16:12.919Z,31.93
2018-03-26T09:18:48.392Z,31.27
2018-03-26T09:21:22.728Z,37.57
2018-03-26T09:23:56.746Z,31.83
2018-03-26T09:26:31.384Z,32.43
2018-03-26T09:29:06.266Z,29.73
2018-03-26T09:31:41.060Z,29.90
2018-03-26T09:34:15.056Z,30.27
2018-03-26T09:36:49.251Z,30.67
2018-03-26T09:39:23.751Z,30.83
2018-03-26T09:41:57.780Z,29.73
2018-03-26T09:44:32.313Z,30.20
2018-03-26T09:47:07.104Z,30.97
2018-03-26T09:49:41.003Z,29.97
2018-03-26T09:52:15.742Z,29.30
2018-03-26T09:54:49.601Z,30.37
2018-03-26T09:57:23.355Z,28.87
2018-03-26T09:59:58.144Z,29.87
2018-03-26T10:02:33.969Z,28.53
2018-03-26T10:05:08.765Z,30.27
2018-03-26T10:07:42.875Z,28.33
2018-03-26T10:10:16.562Z,29.20
2018-03-26T10:12:50.553Z,29.03
2018-03-26T10:15:25.209Z,29.53
2018-03-26T10:18:00.024Z,28.70
2018-03-26T10:20:33.856Z,28.20
2018-03-26T10:23:09.544Z,27.97
2018-03-26T10:25:43.618Z,28.10
2018-03-26T10:28:19.331Z,28.00
2018-03-26T10:30:53.169Z,27.40
2018-03-26T10:33:27.066Z,27.43
2018-03-26T10:36:01.393Z,28.20
2018-03-26T10:38:35.325Z,27.63
2018-03-26T10:41:09.838Z,27.73
2018-03-26T10:43:46.019Z,27.90
2018-03-26T10:46:19.649Z,28.50
2018-03-26T10:48:54.477Z,28.23
2018-03-26T10:51:28.380Z,37.10
2018-03-26T10:54:02.335Z,39.67
2018-03-26T10:56:36.072Z,31.90
2018-03-26T10:59:10.269Z,32.63
2018-03-26T11:01:44.576Z,77.47
2018-03-26T11:04:18.443Z,50.80
2018-03-26T11:06:52.157Z,35.83
2018-03-26T11:09:25.977Z,38.30
2018-03-26T11:12:00.515Z,34.87
2018-03-26T11:14:34.973Z,32.67
2018-03-26T11:17:10.369Z,33.00
2018-03-26T11:19:44.923Z,41.67
2018-03-26T11:22:20.143Z,35.27
2018-03-26T11:24:54.592Z,31.53
2018-03-26T11:27:28.506Z,33.33
2018-03-26T11:30:02.568Z,29.70
2018-03-26T11:32:36.335Z,30.90
2018-03-26T11:35:10.728Z,29.93
2018-03-26T11:37:45.402Z,30.87
2018-03-26T11:40:20.058Z,30.97
2018-03-26T11:42:54.677Z,32.33
2018-03-26T11:45:28.856Z,30.87
2018-03-26T11:48:02.697Z,30.67
2018-03-26T11:50:36.745Z,29.60
2018-03-26T11:53:10.662Z,31.97
2018-03-26T11:55:45.090Z,29.13
2018-03-26T11:58:19.686Z,30.53
2018-03-26T12:00:53.741Z,28.50
2018-03-26T12:03:28.287Z,26.77
2018-03-26T12:06:02.283Z,26.77
2018-03-26T12:08:36.103Z,28.23
2018-03-26T12:11:11.271Z,27.77
2018-03-26T12:13:45.130Z,27.80
2018-03-26T12:16:19.012Z,31.40
2018-03-26T12:18:53.309Z,28.17
2018-03-26T12:21:28.673Z,30.00
2018-03-26T12:24:15.089Z,27.73
2018-03-26T12:26:49.347Z,40.60
2018-03-26T12:29:35.901Z,42.33
2018-03-26T12:32:10.993Z,36.63
2018-03-26T12:34:57.573Z,34.47
2018-03-26T12:37:31.441Z,37.50
2018-03-26T12:40:05.112Z,30.77
2018-03-26T12:42:39.947Z,31.23
2018-03-26T12:45:26.806Z,29.50
2018-03-26T12:48:00.938Z,29.57
2018-03-26T12:50:47.466Z,29.93
2018-03-26T12:53:21.645Z,33.20
2018-03-26T12:55:56.094Z,31.10
2018-03-26T12:58:39.533Z,35.87
2018-03-26T13:01:25.568Z,48.93
2018-03-26T13:04:00.352Z,55.60
2018-03-26T13:06:34.418Z,46.63
2018-03-26T13:09:08.253Z,33.27
2018-03-26T13:11:42.930Z,42.93
2018-03-26T13:14:17.441Z,36.10
2018-03-26T13:16:52.641Z,33.00
2018-03-26T13:19:26.727Z,35.17
2018-03-26T13:22:00.545Z,34.30
2018-03-26T13:24:34.414Z,31.80
2018-03-26T13:27:08.661Z,31.83
2018-03-26T13:29:42.514Z,32.97
2018-03-26T13:32:17.314Z,30.07
2018-03-26T13:34:53.064Z,30.47
2018-03-26T13:37:26.834Z,31.53
2018-03-26T13:40:00.601Z,30.77
2018-03-26T13:42:34.443Z,32.20
2018-03-26T13:45:10.266Z,27.67
2018-03-26T13:47:44.370Z,29.33
2018-03-26T13:50:18.778Z,31.30
2018-03-26T13:52:54.133Z,26.83
2018-03-26T13:55:28.061Z,27.07
2018-03-26T13:58:01.938Z,22.53
2018-03-26T14:00:35.932Z,23.93
2018-03-26T14:03:09.703Z,22.33
2018-03-26T14:05:44.712Z,21.87
2018-03-26T14:08:31.538Z,22.87
2018-03-26T14:11:17.745Z,21.93
2018-03-26T14:14:03.267Z,23.07
2018-03-26T14:16:50.687Z,21.17
2018-03-26T14:19:25.047Z,25.30
2018-03-26T14:22:00.036Z,26.60
2018-03-26T14:24:33.911Z,25.90
2018-03-26T14:27:08.100Z,27.30
2018-03-26T14:29:42.500Z,26.57
2018-03-26T14:32:16.836Z,25.07
2018-03-26T14:35:04.286Z,26.43
2018-03-26T14:37:39.190Z,24.27
2018-03-26T14:40:13.253Z,26.37
2018-03-26T14:42:48.116Z,24.67
2018-03-26T14:45:22.300Z,28.20
2018-03-26T14:47:56.310Z,25.83
2018-03-26T14:50:30.469Z,29.23
2018-03-26T14:53:05.605Z,29.07
2018-03-26T14:55:40.064Z,26.90
2018-03-26T14:58:13.906Z,29.30
2018-03-26T15:00:47.823Z,27.90
2018-03-26T15:03:22.630Z,27.70
2018-03-26T15:05:56.710Z,27.60
2018-03-26T15:08:31.069Z,25.20
2018-03-26T15:11:06.247Z,26.77
2018-03-26T15:13:40.908Z,28.30
2018-03-26T15:16:14.853Z,31.42
2018-03-26T15:18:49.359Z,31.30
2018-03-26T15:21:23.397Z,28.33
2018-03-26T15:23:58.152Z,28.37
2018-03-26T15:26:34.194Z,27.57
2018-03-26T15:29:08.813Z,28.57
2018-03-26T15:31:42.848Z,26.30
2018-03-26T15:34:17.335Z,31.03
2018-03-26T15:36:51.703Z,28.60
2018-03-26T15:39:26.435Z,27.97
2018-03-26T15:42:01.098Z,29.00
2018-03-26T15:44:34.870Z,28.37
2018-03-26T15:47:08.746Z,28.43
2018-03-26T15:49:42.816Z,26.50
2018-03-26T15:52:17.923Z,27.70
2018-03-26T15:54:52.471Z,30.60
2018-03-26T15:57:26.995Z,27.40
2018-03-26T16:00:02.246Z,29.37
2018-03-26T16:02:42.386Z,29.43
2018-03-26T16:05:18.093Z,30.07
2018-03-26T16:07:52.753Z,28.17
2018-03-26T16:10:26.482Z,29.93
2018-03-26T16:13:01.011Z,32.40
2018-03-26T16:15:35.538Z,29.10
2018-03-26T16:18:10.849Z,28.80
2018-03-26T16:20:44.825Z,30.90
2018-03-26T16:23:19.456Z,30.87
2018-03-26T16:25:54.339Z,30.60
2018-03-26T16:28:29.643Z,32.00
2018-03-26T16:31:03.942Z,32.70
2018-03-26T16:33:38.522Z,30.30
2018-03-26T16:36:12.270Z,30.30
2018-03-26T16:38:46.370Z,31.60
2018-03-26T16:41:32.083Z,31.87
2018-03-26T16:44:06.157Z,30.20
2018-03-26T16:46:40.301Z,28.40
2018-03-26T16:49:14.844Z,28.07
2018-03-26T16:51:48.656Z,27.17
2018-03-26T16:54:22.469Z,29.73
2018-03-26T16:56:57.829Z,33.77
2018-03-26T16:59:32.641Z,33.03
2018-03-26T17:02:06.768Z,31.00
2018-03-26T17:04:41.365Z,30.33
2018-03-26T17:07:15.209Z,31.63
2018-03-26T17:09:48.846Z,30.80
2018-03-26T17:12:22.818Z,33.60
2018-03-26T17:14:57.336Z,30.07
2018-03-26T17:17:31.399Z,29.37
2018-03-26T17:20:05.743Z,30.57
2018-03-26T17:22:39.622Z,32.90
2018-03-26T17:25:14.186Z,31.83
2018-03-26T17:27:48.167Z,32.13
2018-03-26T17:30:23.405Z,31.20
2018-03-26T17:32:57.868Z,31.20
2018-03-26T17:35:33.166Z,28.97
2018-03-26T17:38:07.346Z,28.00
2018-03-26T17:40:41.847Z,28.90
2018-03-26T17:43:16.694Z,33.47
2018-03-26T17:45:51.338Z,33.70
2018-03-26T17:48:25.508Z,32.93
2018-03-26T17:50:59.983Z,34.83
2018-03-26T17:53:34.998Z,35.40
2018-03-26T17:56:08.781Z,34.60
2018-03-26T17:58:43.171Z,38.47
2018-03-26T18:01:17.531Z,34.37
2018-03-26T18:03:53.360Z,34.97
2018-03-26T18:06:27.811Z,33.33
2018-03-26T18:09:01.868Z,32.47
2018-03-26T18:11:36.457Z,32.43
2018-03-26T18:14:10.326Z,32.30
2018-03-26T18:16:44.926Z,32.77
2018-03-26T18:19:19.801Z,32.77
2018-03-26T18:21:53.601Z,32.00
2018-03-26T18:24:28.415Z,32.47
2018-03-26T18:27:02.900Z,35.30
2018-03-26T18:29:37.064Z,32.50
2018-03-26T18:32:12.149Z,33.10
2018-03-26T18:34:46.615Z,33.57
2018-03-26T18:37:21.626Z,33.23
2018-03-26T18:39:56.358Z,30.43
2018-03-26T18:42:30.084Z,31.40
2018-03-26T18:45:04.181Z,30.70
2018-03-26T18:47:38.413Z,29.97
2018-03-26T18:50:13.989Z,30.60
2018-03-26T18:52:47.853Z,29.47
2018-03-26T18:55:22.682Z,31.30
2018-03-26T18:57:57.252Z,30.90
2018-03-26T19:00:31.347Z,31.00
2018-03-26T19:03:05.841Z,31.00
2018-03-26T19:05:40.674Z,31.00
2018-03-26T19:08:16.068Z,28.83
2018-03-26T19:10:50.057Z,27.97
2018-03-26T19:13:24.658Z,24.67
2018-03-26T19:15:59.480Z,17.60
2018-03-26T19:18:34.103Z,14.93
2018-03-26T19:21:09.125Z,13.43
2018-03-26T19:23:43.049Z,11.37
2018-03-26T19:26:17.158Z,10.77
2018-03-26T19:28:51.813Z,12.13
2018-03-26T19:31:26.004Z,10.07
2018-03-26T19:34:00.739Z,10.20
2018-03-26T19:36:34.848Z,9.73
2018-03-26T19:39:09.423Z,9.70
2018-03-26T19:41:43.964Z,9.50
2018-03-26T19:44:19.136Z,10.83
2018-03-26T19:46:53.385Z,9.60
2018-03-26T19:49:28.002Z,10.00
2018-03-26T19:52:02.068Z,11.10
2018-03-26T19:54:35.909Z,10.90
2018-03-26T19:57:10.769Z,11.10
2018-03-26T19:59:44.745Z,10.20
2018-03-26T20:02:18.721Z,9.90
2018-03-26T20:04:53.245Z,10.47
2018-03-26T20:07:27.265Z,9.27
2018-03-26T20:10:01.986Z,9.10
2018-03-26T20:12:36.441Z,10.43
2018-03-26T20:15:10.405Z,8.47
2018-03-26T20:17:45.051Z,8.47
2018-03-26T20:20:19.867Z,8.47
2018-03-26T20:22:54.683Z,11.20
2018-03-26T20:25:28.830Z,8.57
2018-03-26T20:28:03.725Z,8.13
2018-03-26T20:30:37.546Z,7.50
2018-03-26T20:33:13.084Z,6.40
2018-03-26T20:35:48.163Z,6.43
2018-03-26T20:38:22.556Z,7.53
2018-03-26T20:40:58.212Z,7.17
2018-03-26T20:43:32.351Z,7.50
2018-03-26T20:46:06.233Z,7.60
2018-03-26T20:48:39.997Z,7.43
2018-03-26T20:51:14.017Z,7.10
2018-03-26T20:53:48.854Z,7.73
2018-03-26T20:56:22.670Z,7.20
2018-03-26T20:58:57.420Z,7.27
2018-03-26T21:01:31.315Z,9.07
2018-03-26T21:06:12.388Z,10.33
2018-03-26T21:08:41.643Z,15.30
2018-03-26T21:11:09.914Z,13.73
2018-03-26T21:13:38.550Z,12.90
2018-03-26T21:16:06.829Z,11.93
2018-03-26T21:18:35.101Z,14.37
2018-03-26T21:21:03.463Z,13.47
2018-03-26T21:23:31.733Z,11.83
2018-03-26T21:26:00.045Z,11.73
2018-03-26T21:28:28.692Z,11.00
2018-03-26T21:30:58.889Z,10.80
2018-03-26T21:33:27.157Z,10.33
2018-03-26T21:35:55.828Z,9.63
2018-03-26T21:38:24.855Z,10.27
2018-03-26T21:40:53.159Z,11.53
2018-03-26T21:43:23.011Z,11.07
2018-03-26T21:45:52.054Z,12.23
2018-03-26T21:48:20.325Z,11.73
2018-03-26T21:50:48.933Z,14.50
2018-03-26T21:53:17.205Z,12.93
2018-03-26T21:55:45.474Z,11.43
2018-03-26T21:58:13.825Z,11.20
2018-03-26T22:00:42.085Z,11.77
2018-03-26T22:03:10.711Z,12.43
2018-03-26T22:05:39.299Z,10.90
2018-03-26T22:08:07.586Z,16.57
2018-03-26T22:10:35.891Z,18.30
2018-03-26T22:13:05.022Z,18.17
2018-03-26T22:15:33.290Z,20.27
2018-03-26T22:18:01.854Z,16.97
2018-03-26T22:20:30.139Z,21.60
2018-03-26T22:22:58.651Z,19.57
2018-03-26T22:25:27.272Z,22.47
2018-03-26T22:27:55.823Z,19.80
2018-03-26T22:30:24.103Z,18.13
2018-03-26T22:32:52.425Z,19.27
2018-03-26T22:35:21.592Z,18.67
2018-03-26T22:37:50.053Z,20.97
2018-03-26T22:40:18.685Z,22.23
2018-03-26T22:42:47.938Z,25.77
2018-03-26T22:45:16.292Z,26.90
2018-03-26T22:47:44.902Z,26.87
2018-03-26T22:50:13.481Z,31.23
2018-03-26T22:52:46.718Z,31.40
2018-03-26T22:55:15.757Z,33.97
2018-03-26T22:57:44.038Z,34.17
2018-03-26T23:00:13.547Z,34.30
2018-03-26T23:02:42.849Z,34.87
2018-03-26T23:05:11.109Z,38.70
2018-03-26T23:07:39.744Z,33.43
2018-03-26T23:10:09.071Z,36.50
2018-03-26T23:12:37.455Z,37.67
2018-03-26T23:15:06.159Z,38.27
2018-03-26T23:17:34.413Z,36.60
2018-03-26T23:20:02.949Z,36.50
2018-03-26T23:22:43.421Z,33.93
2018-03-26T23:25:11.697Z,35.43
2018-03-26T23:27:39.985Z,37.87
2018-03-26T23:30:09.550Z,36.57
2018-03-26T23:32:37.832Z,36.00
2018-03-26T23:35:06.129Z,35.93
2018-03-26T23:37:34.704Z,35.20
2018-03-26T23:40:03.383Z,36.43
2018-03-26T23:42:31.646Z,37.00
2018-03-26T23:45:00.339Z,37.30
2018-03-26T23:47:28.621Z,36.60
2018-03-26T23:49:56.976Z,37.43
2018-03-26T23:52:25.310Z,37.03
2018-03-26T23:54:54.334Z,36.93
2018-03-26T23:57:22.603Z,38.23
2018-03-26T23:59:51.216Z,36.50
